Time;durP1;ratioP1;P1;durP2;ratioP2;P2;SDS_P1;SDS_P2;PMS_P1;PMS_P2;Temp;Humidity;BMP_temperature;BMP_pressure;BME280_temperature;BME280_humidity;BME280_pressure;Samples;Min_cycle;Max_cycle;Signal;HPM_P1;HPM_P2
2023/04/21 00:00:08;;;;;;;;;;;8.10;99.90;;;;;;5019482;28;19964;-78
2023/04/21 00:02:38;;;;;;;;;;;8.10;99.90;;;;;;5016212;28;19963;-71
2023/04/21 00:05:11;;;;;;;;;;;8.10;99.90;;;;;;5016609;28;19996;-71
2023/04/21 00:07:37;;;;;;;;;;;8.10;99.90;;;;;;5016012;28;19960;-74
2023/04/21 00:10:06;;;;;;;;;;;8.10;99.90;;;;;;5016635;28;19913;-71
2023/04/21 00:12:32;;;;;;;;;;;8.10;99.90;;;;;;5018241;28;19958;-71
2023/04/21 00:14:58;;;;;;;;;;;8.10;99.90;;;;;;5016297;28;20341;-71
2023/04/21 00:17:23;;;;;;;;;;;8.10;99.90;;;;;;5013577;28;20630;-71
2023/04/21 00:19:49;;;;;;;;;;;8.10;99.90;;;;;;5016167;28;19913;-71
2023/04/21 00:22:16;;;;;;;;;;;8.10;99.90;;;;;;5016696;28;19913;-72
2023/04/21 00:24:41;;;;;;;;;;;8.10;99.90;;;;;;5018501;28;19923;-76
2023/04/21 00:27:07;;;;;;;;;;;8.10;99.90;;;;;;5014160;28;19917;-71
2023/04/21 00:29:33;;;;;;;;;;;8.10;99.90;;;;;;5016443;28;19978;-71
2023/04/21 00:32:00;;;;;;;;;;;8.10;99.90;;;;;;5015911;28;20028;-78
2023/04/21 00:34:26;;;;;;;;;;;8.10;99.90;;;;;;5009823;28;19916;-71
2023/04/21 00:36:51;;;;;;;;;;;8.10;99.90;;;;;;5010410;28;20361;-72
2023/04/21 00:39:17;;;;;;;;;;;8.10;99.90;;;;;;5018059;28;19964;-71
2023/04/21 00:41:43;;;;;;;;;;;8.00;99.90;;;;;;5046207;28;19913;-71
2023/04/21 00:44:08;;;;;;;;;;;8.00;99.90;;;;;;5018544;28;19917;-75
2023/04/21 00:46:35;;;;;;;;;;;8.10;99.90;;;;;;5015732;28;19913;-72
2023/04/21 00:49:05;;;;;;;;;;;8.00;99.90;;;;;;5020731;28;19921;-72
2023/04/21 00:51:32;;;;;;;;;;;8.00;99.90;;;;;;5014077;28;19935;-72
2023/04/21 00:53:58;;;;;;;;;;;8.00;99.90;;;;;;5017523;28;19921;-71
2023/04/21 00:56:24;;;;;;;;;;;8.00;99.90;;;;;;5012232;28;19935;-71
2023/04/21 00:58:50;;;;;;;;;;;8.00;99.90;;;;;;5013637;28;19940;-75
2023/04/21 01:01:18;;;;;;;;;;;8.00;99.90;;;;;;5021543;28;19960;-79
2023/04/21 01:03:45;;;;;;;;;;;8.00;99.90;;;;;;5022258;28;20330;-74
2023/04/21 01:06:10;;;;;;;;;;;8.00;99.90;;;;;;5015322;28;19908;-74
2023/04/21 01:08:37;;;;;;;;;;;8.00;99.90;;;;;;5016378;28;19967;-76
2023/04/21 01:11:12;;;;;;;;;;;8.00;99.90;;;;;;5013944;28;19979;-77
2023/04/21 01:13:38;;;;;;;;;;;8.00;99.90;;;;;;5015117;28;19968;-72
2023/04/21 01:16:04;;;;;;;;;;;8.00;99.90;;;;;;5010664;28;19914;-71
2023/04/21 01:18:30;;;;;;;;;;;7.90;99.90;;;;;;5014557;28;19948;-71
2023/04/21 01:20:57;;;;;;;;;;;8.00;99.90;;;;;;5015051;28;19957;-71
2023/04/21 01:23:22;;;;;;;;;;;7.90;99.90;;;;;;5015856;28;19913;-74
2023/04/21 01:25:49;;;;;;;;;;;7.90;99.90;;;;;;5010507;28;19913;-78
2023/04/21 01:28:20;;;;;;;;;;;7.90;99.90;;;;;;5014324;28;19916;-72
2023/04/21 01:30:45;;;;;;;;;;;7.90;99.90;;;;;;5013219;28;19963;-71
2023/04/21 01:33:11;;;;;;;;;;;7.90;99.90;;;;;;5016032;28;19948;-76
2023/04/21 01:35:37;;;;;;;;;;;7.90;99.90;;;;;;5013144;28;19937;-71
2023/04/21 01:38:02;;;;;;;;;;;7.90;99.90;;;;;;5015645;28;19948;-71
2023/04/21 01:40:28;;;;;;;;;;;7.90;99.90;;;;;;5018330;28;19914;-78
2023/04/21 01:42:54;;;;;;;;;;;7.80;99.90;;;;;;5013536;28;19915;-72
2023/04/21 01:45:21;;;;;;;;;;;7.90;99.90;;;;;;5012068;28;20377;-72
2023/04/21 01:47:46;;;;;;;;;;;7.80;99.90;;;;;;5009995;28;19917;-71
2023/04/21 01:50:12;;;;;;;;;;;7.80;99.90;;;;;;5011913;28;19909;-71
2023/04/21 01:52:40;;;;;;;;;;;7.80;99.90;;;;;;5016510;28;19917;-72
2023/04/21 01:55:06;;;;;;;;;;;7.80;99.90;;;;;;5013571;28;19910;-71
2023/04/21 01:57:31;;;;;;;;;;;7.80;99.90;;;;;;5011574;28;19909;-71
2023/04/21 01:59:57;;;;;;;;;;;7.80;99.90;;;;;;5018725;28;19913;-71
2023/04/21 02:02:23;;;;;;;;;;;7.80;99.90;;;;;;5010957;28;20362;-74
2023/04/21 02:04:48;;;;;;;;;;;7.80;99.90;;;;;;5017336;28;19929;-72
2023/04/21 02:07:14;;;;;;;;;;;7.80;99.90;;;;;;5014071;28;20032;-71
2023/04/21 02:09:40;;;;;;;;;;;7.80;99.90;;;;;;5013752;28;19959;-71
2023/04/21 02:12:05;;;;;;;;;;;7.80;99.90;;;;;;5012129;28;19921;-73
2023/04/21 02:14:31;;;;;;;;;;;7.80;99.90;;;;;;5012775;28;19924;-71
2023/04/21 02:16:59;;;;;;;;;;;7.80;99.90;;;;;;5014668;28;20335;-71
2023/04/21 02:19:24;;;;;;;;;;;7.80;99.90;;;;;;5015534;28;19909;-76
2023/04/21 02:21:52;;;;;;;;;;;7.80;99.90;;;;;;5014742;28;19921;-73
2023/04/21 02:24:17;;;;;;;;;;;7.80;99.90;;;;;;5048058;28;20301;-71
2023/04/21 02:26:43;;;;;;;;;;;7.80;99.90;;;;;;5017369;28;19917;-75
2023/04/21 02:29:09;;;;;;;;;;;7.80;99.90;;;;;;5017638;28;19921;-72
2023/04/21 02:31:34;;;;;;;;;;;7.80;99.90;;;;;;5015974;28;19913;-70
2023/04/21 02:34:00;;;;;;;;;;;7.80;99.90;;;;;;5011782;28;19935;-75
2023/04/21 02:36:26;;;;;;;;;;;7.80;99.90;;;;;;5012273;28;19916;-71
2023/04/21 02:38:51;;;;;;;;;;;7.80;99.90;;;;;;5015548;28;19932;-71
2023/04/21 02:41:17;;;;;;;;;;;7.70;99.90;;;;;;5021855;28;19966;-71
2023/04/21 02:43:42;;;;;;;;;;;7.80;99.90;;;;;;5014681;28;20292;-73
2023/04/21 02:46:08;;;;;;;;;;;7.70;99.90;;;;;;5017548;28;19968;-77
2023/04/21 02:48:34;;;;;;;;;;;7.70;99.90;;;;;;5015050;28;19921;-76
2023/04/21 02:51:00;;;;;;;;;;;7.70;99.90;;;;;;4999822;28;19909;-71
2023/04/21 02:53:25;;;;;;;;;;;7.70;99.90;;;;;;5017445;28;19913;-70
2023/04/21 02:55:51;;;;;;;;;;;7.70;99.90;;;;;;5017654;28;19909;-71
2023/04/21 02:58:17;;;;;;;;;;;7.70;99.90;;;;;;5019513;28;19933;-71
2023/04/21 03:00:42;;;;;;;;;;;7.70;99.90;;;;;;5016707;28;19913;-76
2023/04/21 03:03:08;;;;;;;;;;;7.70;99.90;;;;;;5013655;28;19912;-71
2023/04/21 03:05:34;;;;;;;;;;;7.60;99.90;;;;;;5011147;28;19915;-71
2023/04/21 03:08:00;;;;;;;;;;;7.60;99.90;;;;;;5015895;28;19909;-71
2023/04/21 03:10:26;;;;;;;;;;;7.70;99.90;;;;;;5012323;28;19920;-71
2023/04/21 03:12:52;;;;;;;;;;;7.70;99.90;;;;;;5019932;28;20416;-75
2023/04/21 03:15:18;;;;;;;;;;;7.70;99.90;;;;;;5016136;28;20369;-71
2023/04/21 03:17:44;;;;;;;;;;;7.70;99.90;;;;;;5017964;28;19913;-71
2023/04/21 03:20:10;;;;;;;;;;;7.70;99.90;;;;;;5015806;28;19917;-71
2023/04/21 03:22:36;;;;;;;;;;;7.60;99.90;;;;;;5021577;28;19913;-74
2023/04/21 03:25:03;;;;;;;;;;;7.60;99.90;;;;;;5018756;28;19949;-73
2023/04/21 03:27:29;;;;;;;;;;;7.60;99.90;;;;;;5021097;28;19909;-74
2023/04/21 03:29:55;;;;;;;;;;;7.60;99.90;;;;;;5014526;28;19992;-71
2023/04/21 03:32:20;;;;;;;;;;;7.60;99.90;;;;;;5011507;28;19909;-71
2023/04/21 03:34:49;;;;;;;;;;;7.70;99.90;;;;;;5016175;28;20359;-75
2023/04/21 03:37:14;;;;;;;;;;;7.70;99.90;;;;;;5014499;28;19913;-72
2023/04/21 03:39:40;;;;;;;;;;;7.70;99.90;;;;;;5013268;28;19970;-71
2023/04/21 03:42:06;;;;;;;;;;;7.70;99.90;;;;;;5017597;28;19913;-71
2023/04/21 03:44:31;;;;;;;;;;;7.70;99.90;;;;;;5011258;28;19923;-71
2023/04/21 03:46:57;;;;;;;;;;;7.70;99.90;;;;;;5017032;28;19913;-71
2023/04/21 03:49:23;;;;;;;;;;;7.70;99.90;;;;;;5011602;28;20020;-71
2023/04/21 03:51:48;;;;;;;;;;;7.70;99.90;;;;;;5013957;28;19913;-71
2023/04/21 03:54:14;;;;;;;;;;;7.70;99.90;;;;;;5014354;28;19909;-73
2023/04/21 03:56:40;;;;;;;;;;;7.70;99.90;;;;;;5019405;28;19940;-73
2023/04/21 03:59:06;;;;;;;;;;;7.70;99.90;;;;;;5013977;28;20373;-72
2023/04/21 04:01:32;;;;;;;;;;;7.70;99.90;;;;;;5014458;28;19920;-71
2023/04/21 04:04:00;;;;;;;;;;;7.70;99.90;;;;;;5018191;28;20345;-70
2023/04/21 04:06:27;;;;;;;;;;;7.70;99.90;;;;;;5014714;28;20365;-73
2023/04/21 04:08:52;;;;;;;;;;;7.70;99.90;;;;;;5016308;28;19919;-72
2023/04/21 04:11:18;;;;;;;;;;;7.70;99.90;;;;;;5016868;28;19917;-74
2023/04/21 04:13:44;;;;;;;;;;;7.70;99.90;;;;;;5021164;28;19913;-73
2023/04/21 04:16:09;;;;;;;;;;;7.70;99.90;;;;;;5016012;28;19951;-79
2023/04/21 04:18:35;;;;;;;;;;;7.70;99.90;;;;;;5016653;28;19918;-73
2023/04/21 04:21:05;;;;;;;;;;;7.70;99.90;;;;;;5010997;28;19935;-70
2023/04/21 04:23:30;;;;;;;;;;;7.70;99.90;;;;;;5015412;28;19914;-70
2023/04/21 04:25:56;;;;;;;;;;;7.70;99.90;;;;;;5014617;28;20377;-71
2023/04/21 04:28:22;;;;;;;;;;;7.70;99.90;;;;;;5017007;28;19959;-70
2023/04/21 04:30:47;;;;;;;;;;;7.70;99.90;;;;;;5011462;28;20457;-70
2023/04/21 04:33:14;;;;;;;;;;;7.70;99.90;;;;;;5014631;28;20408;-70
2023/04/21 04:35:40;;;;;;;;;;;7.70;99.90;;;;;;5016167;28;19948;-70
2023/04/21 04:38:06;;;;;;;;;;;7.70;99.90;;;;;;5012138;28;20010;-70
2023/04/21 04:40:32;;;;;;;;;;;7.70;99.90;;;;;;4993517;28;19974;-71
2023/04/21 04:42:58;;;;;;;;;;;7.70;99.90;;;;;;5045486;28;19913;-73
2023/04/21 04:45:25;;;;;;;;;;;7.80;99.90;;;;;;5014215;28;19996;-71
2023/04/21 04:47:51;;;;;;;;;;;7.80;99.90;;;;;;5012833;28;19920;-70
2023/04/21 04:50:16;;;;;;;;;;;7.80;99.90;;;;;;5028020;28;19910;-71
2023/04/21 04:52:45;;;;;;;;;;;7.80;99.90;;;;;;5015112;28;20052;-70
2023/04/21 04:55:12;;;;;;;;;;;7.80;99.90;;;;;;5013892;28;20413;-76
2023/04/21 04:57:38;;;;;;;;;;;7.80;99.90;;;;;;5015373;28;20281;-71
2023/04/21 05:00:06;;;;;;;;;;;7.90;99.90;;;;;;5008621;28;19920;-70
2023/04/21 05:02:31;;;;;;;;;;;7.90;99.90;;;;;;5007795;28;19964;-73
2023/04/21 05:04:57;;;;;;;;;;;8.00;99.90;;;;;;5001242;28;20397;-70
2023/04/21 05:07:23;;;;;;;;;;;8.00;99.90;;;;;;4994714;28;19909;-70
2023/04/21 05:09:48;;;;;;;;;;;8.00;99.90;;;;;;5010976;28;19917;-70
2023/04/21 05:12:14;;;;;;;;;;;8.00;99.90;;;;;;5008966;28;19968;-71
2023/04/21 05:14:39;;;;;;;;;;;8.10;99.90;;;;;;5006204;28;20000;-72
2023/04/21 05:17:05;;;;;;;;;;;8.10;99.90;;;;;;5010548;28;19910;-73
2023/04/21 05:19:33;;;;;;;;;;;8.20;99.90;;;;;;5017061;28;19932;-74
2023/04/21 05:22:02;;;;;;;;;;;8.20;99.90;;;;;;5012704;28;20362;-73
2023/04/21 05:24:27;;;;;;;;;;;8.20;99.90;;;;;;4995479;28;19916;-71
2023/04/21 05:26:53;;;;;;;;;;;8.30;99.90;;;;;;5011160;28;19917;-73
2023/04/21 05:29:19;;;;;;;;;;;8.30;99.90;;;;;;5016436;28;20357;-71
2023/04/21 05:31:45;;;;;;;;;;;8.30;99.90;;;;;;5014110;28;19917;-72
2023/04/21 05:34:11;;;;;;;;;;;8.40;99.90;;;;;;5011728;28;19913;-71
2023/04/21 05:36:40;;;;;;;;;;;8.40;99.90;;;;;;5014119;28;19909;-73
2023/04/21 05:39:06;;;;;;;;;;;8.50;99.90;;;;;;5048256;28;19931;-71
2023/04/21 05:41:31;;;;;;;;;;;8.50;99.90;;;;;;5017440;28;19909;-71
2023/04/21 05:43:57;;;;;;;;;;;8.50;99.90;;;;;;5011941;28;19917;-73
2023/04/21 05:46:23;;;;;;;;;;;8.60;99.90;;;;;;5008195;28;20022;-71
2023/04/21 05:48:49;;;;;;;;;;;8.60;99.90;;;;;;5018994;28;20298;-75
2023/04/21 05:51:14;;;;;;;;;;;8.70;99.90;;;;;;5021152;28;20009;-75
2023/04/21 05:53:41;;;;;;;;;;;8.80;99.90;;;;;;5017383;28;20381;-71
2023/04/21 05:56:10;;;;;;;;;;;8.80;99.90;;;;;;5009586;28;19916;-71
2023/04/21 05:58:37;;;;;;;;;;;8.80;99.90;;;;;;5011995;28;19924;-71
2023/04/21 06:01:02;;;;;;;;;;;8.90;99.90;;;;;;5011678;28;19909;-76
2023/04/21 06:03:31;;;;;;;;;;;8.90;99.90;;;;;;4993534;28;20008;-73
2023/04/21 06:05:58;;;;;;;;;;;9.00;99.90;;;;;;5018744;28;20365;-73
2023/04/21 06:08:25;;;;;;;;;;;9.10;99.90;;;;;;5017328;28;19917;-71
2023/04/21 06:10:51;;;;;;;;;;;9.10;99.90;;;;;;5015993;28;20384;-71
2023/04/21 06:13:16;;;;;;;;;;;9.20;99.90;;;;;;5017697;28;19917;-75
2023/04/21 06:15:42;;;;;;;;;;;9.20;99.90;;;;;;5021021;28;19959;-71
2023/04/21 06:18:07;;;;;;;;;;;9.20;99.90;;;;;;5018036;28;19913;-74
2023/04/21 06:20:33;;;;;;;;;;;9.30;99.90;;;;;;5017022;28;19913;-71
2023/04/21 06:22:59;;;;;;;;;;;9.30;99.90;;;;;;5019487;28;19949;-73
2023/04/21 06:25:24;;;;;;;;;;;9.40;99.90;;;;;;5020081;28;19960;-72
2023/04/21 06:27:50;;;;;;;;;;;9.50;99.90;;;;;;5020431;28;19936;-71
2023/04/21 06:30:16;;;;;;;;;;;9.50;99.90;;;;;;5017509;28;19952;-73
2023/04/21 06:32:42;;;;;;;;;;;9.50;99.90;;;;;;5018520;28;20334;-71
2023/04/21 06:35:08;;;;;;;;;;;9.60;99.90;;;;;;5013264;28;19918;-72
2023/04/21 06:37:34;;;;;;;;;;;9.60;99.90;;;;;;5018219;28;20004;-72
2023/04/21 06:39:59;;;;;;;;;;;9.70;99.90;;;;;;5013793;28;20352;-74
2023/04/21 06:42:25;;;;;;;;;;;9.70;99.90;;;;;;5021057;28;19917;-73
2023/04/21 06:44:50;;;;;;;;;;;9.70;99.90;;;;;;5015351;28;19913;-69
2023/04/21 06:47:16;;;;;;;;;;;9.80;99.90;;;;;;5011832;28;19909;-71
2023/04/21 06:49:41;;;;;;;;;;;9.80;99.90;;;;;;5047806;28;20328;-71
2023/04/21 06:52:07;;;;;;;;;;;9.90;99.90;;;;;;5012288;28;19914;-71
2023/04/21 06:54:33;;;;;;;;;;;10.00;99.90;;;;;;5018340;28;19963;-71
2023/04/21 06:56:58;;;;;;;;;;;10.00;99.90;;;;;;5017012;28;20008;-72
2023/04/21 06:59:24;;;;;;;;;;;10.10;99.90;;;;;;5017672;28;19917;-71
2023/04/21 07:01:51;;;;;;;;;;;10.10;99.90;;;;;;4998252;28;20361;-72
2023/04/21 07:04:17;;;;;;;;;;;10.00;99.90;;;;;;5018772;28;19913;-73
2023/04/21 07:06:42;;;;;;;;;;;10.10;99.90;;;;;;5020281;28;19913;-72
2023/04/21 07:09:08;;;;;;;;;;;10.10;99.90;;;;;;5018896;28;19963;-77
2023/04/21 07:11:34;;;;;;;;;;;10.20;99.90;;;;;;5019278;28;19920;-73
2023/04/21 07:14:01;;;;;;;;;;;10.30;99.90;;;;;;5023725;28;19906;-73
2023/04/21 07:16:27;;;;;;;;;;;10.30;99.90;;;;;;5022497;28;19912;-79
2023/04/21 07:18:53;;;;;;;;;;;10.30;99.90;;;;;;5033827;28;19913;-77
2023/04/21 07:21:19;;;;;;;;;;;10.40;99.90;;;;;;5026394;28;19916;-76
2023/04/21 07:23:45;;;;;;;;;;;10.50;99.90;;;;;;5007331;28;20308;-73
2023/04/21 07:26:10;;;;;;;;;;;10.50;99.90;;;;;;5021452;28;19941;-74
2023/04/21 07:28:37;;;;;;;;;;;10.50;99.90;;;;;;5015487;28;20377;-73
2023/04/21 07:31:04;;;;;;;;;;;10.50;99.90;;;;;;5000308;28;19909;-72
2023/04/21 07:33:32;;;;;;;;;;;10.60;99.90;;;;;;5015454;28;19975;-72
2023/04/21 07:35:59;;;;;;;;;;;10.70;99.90;;;;;;5015427;28;19917;-78
2023/04/21 07:38:25;;;;;;;;;;;10.80;99.90;;;;;;5014710;28;19910;-71
2023/04/21 07:40:52;;;;;;;;;;;10.80;99.90;;;;;;5019851;28;19913;-75
2023/04/21 07:43:18;;;;;;;;;;;10.80;99.90;;;;;;5018823;28;19909;-74
2023/04/21 07:45:44;;;;;;;;;;;10.80;99.90;;;;;;5021669;28;19916;-73
2023/04/21 07:48:10;;;;;;;;;;;10.90;99.90;;;;;;5012217;28;19909;-71
2023/04/21 07:50:35;;;;;;;;;;;11.00;99.90;;;;;;4998148;28;19991;-72
2023/04/21 07:53:01;;;;;;;;;;;11.00;99.90;;;;;;4997568;28;19913;-72
2023/04/21 07:55:27;;;;;;;;;;;11.00;99.90;;;;;;5012285;28;19921;-71
2023/04/21 07:57:55;;;;;;;;;;;11.10;99.90;;;;;;5019946;28;19960;-75
2023/04/21 08:00:21;;;;;;;;;;;11.20;99.90;;;;;;5015947;28;20396;-75
2023/04/21 08:02:46;;;;;;;;;;;11.20;99.90;;;;;;5000840;28;19932;-75
2023/04/21 08:05:12;;;;;;;;;;;11.30;99.90;;;;;;5014101;28;19925;-71
2023/04/21 08:07:38;;;;;;;;;;;11.30;99.90;;;;;;5009778;28;21141;-71
2023/04/21 08:10:04;;;;;;;;;;;11.30;99.90;;;;;;5015178;28;19968;-71
2023/04/21 08:12:49;;;;;;;;;;;11.40;99.90;;;;;;5016243;28;19924;-71
2023/04/21 08:15:15;;;;;;;;;;;11.60;99.90;;;;;;5012508;28;20352;-71
2023/04/21 08:17:40;;;;;;;;;;;11.70;99.90;;;;;;5015005;28;19920;-71
2023/04/21 08:20:06;;;;;;;;;;;11.70;99.90;;;;;;5014040;28;19932;-71
2023/04/21 08:22:32;;;;;;;;;;;11.70;99.90;;;;;;5012166;28;19916;-71
2023/04/21 08:24:58;;;;;;;;;;;11.70;99.90;;;;;;5015225;28;19917;-71
2023/04/21 08:27:23;;;;;;;;;;;11.80;99.90;;;;;;5017738;28;19909;-71
2023/04/21 08:29:50;;;;;;;;;;;11.90;99.90;;;;;;5014497;28;19916;-72
2023/04/21 08:32:22;;;;;;;;;;;11.90;99.90;;;;;;5013087;28;20042;-71
2023/04/21 08:34:49;;;;;;;;;;;12.10;99.90;;;;;;5016205;28;19919;-71
2023/04/21 08:37:14;;;;;;;;;;;12.00;99.90;;;;;;5017805;28;19949;-71
2023/04/21 08:39:40;;;;;;;;;;;12.20;99.90;;;;;;5017153;28;20025;-71
2023/04/21 08:42:07;;;;;;;;;;;12.20;99.90;;;;;;5015337;28;19913;-72
2023/04/21 08:44:46;;;;;;;;;;;12.20;99.90;;;;;;5021954;28;19995;-77
2023/04/21 08:47:14;;;;;;;;;;;12.30;99.90;;;;;;5022639;28;20285;-80
2023/04/21 08:49:43;;;;;;;;;;;12.40;99.90;;;;;;5048173;28;19963;-73
2023/04/21 08:52:10;;;;;;;;;;;12.50;99.90;;;;;;5016571;28;19912;-74
2023/04/21 08:54:37;;;;;;;;;;;12.50;99.90;;;;;;5029004;28;19913;-74
2023/04/21 08:57:03;;;;;;;;;;;12.50;99.90;;;;;;5014771;28;20388;-78
2023/04/21 08:59:29;;;;;;;;;;;12.70;99.90;;;;;;5018601;28;19909;-78
2023/04/21 09:02:14;;;;;;;;;;;12.80;99.90;;;;;;5024520;28;19909;-73
2023/04/21 09:04:41;;;;;;;;;;;12.80;99.90;;;;;;5017300;28;19913;-73
2023/04/21 09:07:07;;;;;;;;;;;12.90;99.90;;;;;;5014604;28;19956;-72
2023/04/21 09:09:52;;;;;;;;;;;12.90;99.90;;;;;;5009758;28;19996;-71
2023/04/21 09:12:18;;;;;;;;;;;13.00;99.90;;;;;;5010460;28;19928;-72
2023/04/21 09:14:45;;;;;;;;;;;13.10;99.90;;;;;;5017545;28;19913;-72
2023/04/21 09:17:11;;;;;;;;;;;13.20;99.90;;;;;;5036547;28;20003;-73
2023/04/21 09:19:37;;;;;;;;;;;13.40;99.90;;;;;;5012623;28;20016;-72
2023/04/21 09:22:03;;;;;;;;;;;13.40;99.90;;;;;;5010602;28;19920;-72
2023/04/21 09:24:29;;;;;;;;;;;13.40;99.90;;;;;;5017347;28;19917;-72
2023/04/21 09:26:54;;;;;;;;;;;13.40;99.90;;;;;;5011941;28;19913;-72
2023/04/21 09:29:24;;;;;;;;;;;13.50;99.90;;;;;;5010885;28;19915;-70
2023/04/21 09:31:50;;;;;;;;;;;13.60;99.90;;;;;;5005625;28;19940;-73
2023/04/21 09:34:23;;;;;;;;;;;13.70;99.90;;;;;;5005575;28;19909;-72
2023/04/21 09:37:02;;;;;;;;;;;13.90;99.90;;;;;;5000639;28;19944;-71
2023/04/21 09:39:31;;;;;;;;;;;13.80;99.90;;;;;;5010269;28;19909;-71
2023/04/21 09:41:57;;;;;;;;;;;13.80;99.90;;;;;;5005373;28;20011;-71
2023/04/21 09:44:27;;;;;;;;;;;14.00;99.90;;;;;;5012744;28;19913;-72
2023/04/21 09:47:02;;;;;;;;;;;14.10;99.90;;;;;;5015631;28;19916;-76
2023/04/21 09:49:30;;;;;;;;;;;14.20;99.90;;;;;;5021602;28;19923;-72
2023/04/21 09:51:59;;;;;;;;;;;14.30;99.90;;;;;;5010452;28;19917;-72
2023/04/21 09:54:32;;;;;;;;;;;14.50;99.90;;;;;;5012769;28;20392;-72
2023/04/21 09:56:58;;;;;;;;;;;14.40;99.90;;;;;;4994241;28;19920;-71
2023/04/21 09:59:26;;;;;;;;;;;14.60;99.90;;;;;;5013006;28;19976;-74
2023/04/21 10:01:54;;;;;;;;;;;14.70;99.80;;;;;;5012882;28;19933;-72
2023/04/21 10:04:21;;;;;;;;;;;14.60;99.90;;;;;;5015418;28;19917;-71
2023/04/21 10:06:47;;;;;;;;;;;14.70;99.10;;;;;;5008492;28;19928;-72
2023/04/21 10:09:15;;;;;;;;;;;14.90;98.70;;;;;;5008336;28;20035;-74
2023/04/21 10:11:40;;;;;;;;;;;14.90;99.20;;;;;;5012757;28;19917;-76
2023/04/21 10:14:09;;;;;;;;;;;14.90;99.90;;;;;;5014649;28;19921;-73
2023/04/21 10:16:39;;;;;;;;;;;15.00;98.40;;;;;;5015159;28;19910;-73
2023/04/21 10:19:43;;;;;;;;;;;15.10;98.40;;;;;;5016961;28;19913;-72
2023/04/21 10:22:09;;;;;;;;;;;15.20;98.90;;;;;;5011190;28;20357;-72
2023/04/21 10:24:39;;;;;;;;;;;15.20;98.70;;;;;;5028520;28;20719;-71
2023/04/21 10:27:08;;;;;;;;;;;15.30;98.40;;;;;;5006809;28;19953;-72
2023/04/21 10:29:34;;;;;;;;;;;15.30;99.60;;;;;;5043474;28;19913;-72
2023/04/21 10:32:00;;;;;;;;;;;15.50;95.50;;;;;;5007410;28;20479;-73
2023/04/21 10:34:26;;;;;;;;;;;15.70;94.60;;;;;;5012271;28;19913;-84
2023/04/21 10:36:55;;;;;;;;;;;15.60;94.60;;;;;;5011968;28;19996;-72
2023/04/21 10:39:27;;;;;;;;;;;15.50;96.00;;;;;;5016545;28;20338;-72
2023/04/21 10:42:00;;;;;;;;;;;15.60;95.30;;;;;;5009244;28;19913;-71
2023/04/21 10:44:27;;;;;;;;;;;15.80;93.40;;;;;;5038988;28;19928;-71
2023/04/21 10:46:53;;;;;;;;;;;15.90;93.60;;;;;;5011839;28;19924;-69
2023/04/21 10:49:29;;;;;;;;;;;15.90;93.60;;;;;;5011659;28;19913;-72
2023/04/21 10:54:30;;;;;;;;;;;16.10;94.20;;;;;;5016312;28;19996;-72
2023/04/21 10:56:58;;;;;;;;;;;16.20;92.80;;;;;;5020354;28;19975;-73
2023/04/21 10:59:24;;;;;;;;;;;16.20;93.80;;;;;;5019017;28;20408;-70
2023/04/21 11:01:50;;;;;;;;;;;16.40;93.90;;;;;;5017648;28;19933;-76
2023/04/21 11:04:16;;;;;;;;;;;16.50;91.90;;;;;;5022320;28;20204;-75
2023/04/21 11:07:03;;;;;;;;;;;16.60;92.80;;;;;;5013204;28;19939;-72
2023/04/21 11:09:29;;;;;;;;;;;16.90;92.80;;;;;;5015244;28;20743;-70
2023/04/21 11:11:58;;;;;;;;;;;17.70;91.20;;;;;;5012769;28;19921;-71
2023/04/21 11:14:23;;;;;;;;;;;18.90;87.60;;;;;;5029410;28;20036;-71
2023/04/21 11:16:49;;;;;;;;;;;20.00;80.00;;;;;;5013934;28;20440;-69
2023/04/21 11:19:16;;;;;;;;;;;21.30;75.60;;;;;;5017624;28;19909;-69
2023/04/21 11:21:41;;;;;;;;;;;22.40;66.60;;;;;;5010877;28;19909;-70
2023/04/21 11:24:07;;;;;;;;;;;23.30;63.00;;;;;;5033318;28;19964;-70
2023/04/21 11:26:41;;;;;;;;;;;24.30;57.60;;;;;;5020289;28;19952;-69
2023/04/21 11:29:07;;;;;;;;;;;24.90;57.10;;;;;;5034956;28;20382;-74
2023/04/21 11:31:33;;;;;;;;;;;25.50;54.90;;;;;;5013111;28;19913;-66
2023/04/21 11:34:00;;;;;;;;;;;25.80;50.80;;;;;;5019240;28;19913;-66
2023/04/21 11:36:26;;;;;;;;;;;25.80;49.10;;;;;;5017753;28;19996;-71
2023/04/21 11:38:51;;;;;;;;;;;25.30;48.70;;;;;;5015635;28;19984;-75
2023/04/21 11:41:24;;;;;;;;;;;24.60;49.50;;;;;;5016011;28;20377;-65
2023/04/21 11:43:50;;;;;;;;;;;24.60;48.60;;;;;;5011099;28;19917;-68
2023/04/21 11:46:17;;;;;;;;;;;23.90;48.60;;;;;;5012263;28;19923;-73
2023/04/21 11:48:43;;;;;;;;;;;23.10;49.30;;;;;;5017168;28;19975;-74
2023/04/21 11:51:15;;;;;;;;;;;22.50;50.90;;;;;;5008862;28;19912;-74
2023/04/21 11:53:42;;;;;;;;;;;22.20;50.70;;;;;;5014363;28;20321;-77
2023/04/21 11:56:08;;;;;;;;;;;22.00;51.40;;;;;;5011795;28;20501;-74
2023/04/21 11:58:34;;;;;;;;;;;22.10;53.00;;;;;;5018103;28;19916;-74
2023/04/21 12:01:06;;;;;;;;;;;22.10;52.40;;;;;;5013880;28;20297;-82
2023/04/21 12:03:31;;;;;;;;;;;22.30;52.00;;;;;;5012185;28;19936;-76
2023/04/21 12:05:58;;;;;;;;;;;22.60;50.60;;;;;;5020136;28;20052;-81
2023/04/21 12:08:28;;;;;;;;;;;22.00;52.00;;;;;;5014470;28;20008;-74
2023/04/21 12:10:54;;;;;;;;;;;22.40;51.30;;;;;;5015132;28;19917;-76
2023/04/21 12:13:23;;;;;;;;;;;22.20;52.60;;;;;;5020846;28;20417;-77
2023/04/21 12:15:48;;;;;;;;;;;22.20;51.80;;;;;;5018983;28;19924;-75
2023/04/21 12:18:14;;;;;;;;;;;22.50;52.00;;;;;;5003295;28;19909;-76
2023/04/21 12:21:00;;;;;;;;;;;22.40;51.60;;;;;;5023723;28;19959;-75
2023/04/21 12:23:25;;;;;;;;;;;22.50;50.70;;;;;;5016910;28;19913;-74
2023/04/21 12:25:51;;;;;;;;;;;22.60;49.40;;;;;;5020267;28;19924;-75
2023/04/21 12:28:17;;;;;;;;;;;22.70;52.80;;;;;;5017787;28;19931;-77
2023/04/21 12:30:42;;;;;;;;;;;22.80;50.80;;;;;;5019523;28;19963;-74
2023/04/21 12:33:08;;;;;;;;;;;23.30;49.80;;;;;;5019829;28;19932;-77
2023/04/21 12:35:34;;;;;;;;;;;23.50;50.40;;;;;;5008210;28;20271;-74
2023/04/21 12:38:00;;;;;;;;;;;24.20;48.20;;;;;;5020541;28;20000;-74
2023/04/21 12:40:27;;;;;;;;;;;24.20;46.90;;;;;;5012504;28;19913;-74
2023/04/21 12:42:53;;;;;;;;;;;24.00;46.70;;;;;;5014224;28;19924;-71
2023/04/21 12:45:19;;;;;;;;;;;24.60;46.00;;;;;;5013953;28;19960;-73
2023/04/21 12:47:44;;;;;;;;;;;24.70;43.70;;;;;;5014858;28;19918;-71
2023/04/21 12:50:11;;;;;;;;;;;25.00;43.40;;;;;;5009694;28;19916;-73
2023/04/21 12:52:36;;;;;;;;;;;25.20;41.70;;;;;;5007224;28;20351;-71
2023/04/21 12:55:03;;;;;;;;;;;25.10;41.70;;;;;;5002119;28;20000;-71
2023/04/21 12:57:30;;;;;;;;;;;25.10;42.10;;;;;;5011705;28;20080;-76
2023/04/21 12:59:56;;;;;;;;;;;25.10;42.40;;;;;;5014423;28;20387;-79
2023/04/21 13:02:22;;;;;;;;;;;25.90;43.40;;;;;;5035253;28;19949;-76
2023/04/21 13:04:47;;;;;;;;;;;26.30;41.00;;;;;;5016334;28;19936;-76
2023/04/21 13:07:14;;;;;;;;;;;26.10;40.70;;;;;;5015807;28;20357;-77
2023/04/21 13:09:40;;;;;;;;;;;26.20;40.90;;;;;;5013719;28;19916;-75
2023/04/21 13:12:06;;;;;;;;;;;26.60;39.80;;;;;;5015237;28;19912;-76
2023/04/21 13:14:32;;;;;;;;;;;27.30;40.10;;;;;;5016878;28;19916;-75
2023/04/21 13:16:57;;;;;;;;;;;27.50;39.40;;;;;;5011709;28;19917;-78
2023/04/21 13:19:23;;;;;;;;;;;27.70;38.80;;;;;;5015716;28;20383;-79
2023/04/21 13:21:49;;;;;;;;;;;26.90;39.30;;;;;;5012278;28;19913;-81
2023/04/21 13:24:15;;;;;;;;;;;26.30;39.10;;;;;;5038413;28;19897;-75
2023/04/21 13:26:40;;;;;;;;;;;27.10;39.30;;;;;;5012085;28;19960;-78
2023/04/21 13:29:06;;;;;;;;;;;27.50;39.20;;;;;;5016807;28;19956;-75
2023/04/21 13:31:31;;;;;;;;;;;27.40;38.10;;;;;;5013315;28;20287;-78
2023/04/21 13:33:58;;;;;;;;;;;27.40;39.70;;;;;;5017060;28;20444;-77
2023/04/21 13:36:23;;;;;;;;;;;27.70;38.70;;;;;;5015626;28;19909;-80
2023/04/21 13:38:49;;;;;;;;;;;27.50;38.10;;;;;;5010075;28;19910;-76
2023/04/21 13:41:15;;;;;;;;;;;27.10;39.20;;;;;;4997841;28;19996;-78
2023/04/21 13:43:41;;;;;;;;;;;26.70;40.00;;;;;;5018694;28;20495;-75
2023/04/21 13:46:07;;;;;;;;;;;25.80;39.70;;;;;;5017270;28;19913;-76
2023/04/21 13:48:32;;;;;;;;;;;25.20;41.20;;;;;;4993788;28;19939;-76
2023/04/21 13:50:58;;;;;;;;;;;24.80;40.60;;;;;;4998053;28;19917;-82
2023/04/21 13:53:24;;;;;;;;;;;24.50;41.60;;;;;;5025292;28;19913;-77
2023/04/21 13:55:49;;;;;;;;;;;24.70;42.80;;;;;;5018311;28;19999;-78
2023/04/21 13:58:16;;;;;;;;;;;25.50;41.80;;;;;;5016173;28;19932;-76
2023/04/21 14:00:42;;;;;;;;;;;24.10;42.90;;;;;;5014488;28;19931;-79
2023/04/21 14:03:08;;;;;;;;;;;23.70;43.40;;;;;;5009935;28;20439;-67
2023/04/21 14:05:34;;;;;;;;;;;23.70;43.70;;;;;;5013711;28;19932;-67
2023/04/21 14:07:59;;;;;;;;;;;23.70;44.30;;;;;;5013768;28;19916;-75
2023/04/21 14:10:25;;;;;;;;;;;23.40;44.60;;;;;;5014273;28;19978;-73
2023/04/21 14:12:51;;;;;;;;;;;23.20;45.30;;;;;;5014451;28;20366;-73
2023/04/21 14:15:16;;;;;;;;;;;22.90;45.80;;;;;;5047746;28;19917;-71
2023/04/21 14:17:42;;;;;;;;;;;22.60;45.90;;;;;;5016776;28;20007;-73
2023/04/21 14:20:08;;;;;;;;;;;22.40;45.40;;;;;;4999021;28;19952;-72
2023/04/21 14:22:34;;;;;;;;;;;22.20;46.80;;;;;;5017955;28;19905;-71